Ben Gurion International Airport (TLV/LLBG)



No chart available
Flight Aircraft Arriving
CPX99
EDDK - Cologne Bonn Airport
Germany Cologne, Germany
Flight Aircraft Departing
CPX999
EDDK - Cologne Bonn Airport
Germany Cologne, Germany


Airport Information
Location: Tel Aviv,
Coordinates: 32.0114 / 34.8867
Field Elevation: 134ft
Longest Runway: 13,311ft
ILS Approaches: YES
Landing Fees: $1,898 per flight
Jet A Price: $0.59/lbs

Current Weather
METAR: LLBG 042120Z 16005KT 9999 FEW020 26/21 Q1006 NOSIG
TAF: TAF LLBG 041705Z 0418/0518 VRB04KT 9999 FEW018 PROB40 TEMPO 0501/0505 15004KT BKN014 BECMG 0507/0509 28010KT CAVOK TX32/0511Z TN22/0503Z

Recent Arrivals
Date Flight Type Depart
05/30/2022 CPX999 A30F Cologne Bonn Airport (EDDK)
04/16/2022 CPX999 A30F Cologne Bonn Airport (EDDK)
09/06/2021 CPX975 A31F Cologne Bonn Airport (EDDK)
01/21/2020 CPX775 B763 Liège Airport (EBLG)
04/24/2019 CPX775 B763 Liège Airport (EBLG)
Recent Departures
Date Flight Type Arrive
05/30/2022 CPX99 A30F Cologne Bonn Airport (EDDK)
04/16/2022 CPX99 A30F Cologne Bonn Airport (EDDK)
09/08/2021 CPX976 A31F Cologne Bonn Airport (EDDK)
01/22/2020 CPX776 B763 Liège Airport (EBLG)
04/25/2019 CPX776 B763 Liège Airport (EBLG)